createdAt,value
2023-08-22T00:01:21.736Z,17.48
2023-08-22T00:06:35.051Z,17.44
2023-08-22T00:09:12.393Z,17.42
2023-08-22T00:12:22.113Z,17.39
2023-08-22T00:15:06.808Z,17.32
2023-08-22T00:17:53.345Z,17.32
2023-08-22T00:23:08.693Z,17.26
2023-08-22T00:26:17.249Z,17.24
2023-08-22T00:37:43.009Z,17.34
2023-08-22T00:40:16.181Z,17.32
2023-08-22T00:42:47.445Z,17.27
2023-08-22T00:45:21.959Z,17.28
2023-08-22T00:47:51.967Z,17.27
2023-08-22T00:50:28.980Z,17.25
2023-08-22T00:59:21.747Z,17.13
2023-08-22T01:04:43.548Z,17.07
2023-08-22T01:10:52.984Z,16.98
2023-08-22T01:13:43.609Z,16.95
2023-08-22T01:16:10.968Z,16.92
2023-08-22T01:18:40.647Z,16.88
2023-08-22T01:21:27.313Z,16.85
2023-08-22T01:24:12.589Z,16.81
2023-08-22T01:30:00.042Z,16.70
2023-08-22T01:32:36.826Z,16.65
2023-08-22T01:35:11.542Z,16.62
2023-08-22T01:37:40.212Z,16.60
2023-08-22T01:40:10.088Z,16.59
2023-08-22T01:42:40.904Z,16.54
2023-08-22T01:45:12.842Z,16.49
2023-08-22T01:50:30.730Z,16.38
2023-08-22T01:52:59.051Z,16.35
2023-08-22T01:55:25.775Z,16.29
2023-08-22T01:57:52.506Z,16.27
2023-08-22T02:00:22.730Z,16.23
2023-08-22T02:02:50.041Z,16.15
2023-08-22T02:05:27.551Z,16.08
2023-08-22T02:11:04.065Z,16.01
2023-08-22T02:13:40.043Z,15.97
2023-08-22T02:16:09.228Z,16.02
2023-08-22T02:18:36.220Z,16.01
2023-08-22T02:21:03.798Z,15.96
2023-08-22T02:23:36.742Z,15.94
2023-08-22T02:26:03.668Z,15.92
2023-08-22T02:31:15.984Z,15.82
2023-08-22T02:33:42.857Z,15.79
2023-08-22T02:36:11.857Z,15.79
2023-08-22T02:38:59.795Z,15.74
2023-08-22T02:41:37.334Z,15.67
2023-08-22T02:44:04.636Z,15.63
2023-08-22T02:46:31.926Z,15.58
2023-08-22T02:48:58.674Z,15.57
2023-08-22T02:51:26.844Z,15.56
2023-08-22T02:54:09.929Z,15.55
2023-08-22T02:56:38.852Z,15.53
2023-08-22T02:59:05.666Z,15.55
2023-08-22T03:05:04.621Z,15.55
2023-08-22T03:07:44.843Z,15.53
2023-08-22T03:13:04.802Z,15.49
2023-08-22T03:19:09.303Z,15.46
2023-08-22T03:22:05.015Z,15.48
2023-08-22T03:24:34.497Z,15.48
2023-08-22T03:27:10.612Z,15.48
2023-08-22T03:29:43.048Z,15.49
2023-08-22T03:32:15.972Z,15.47
2023-08-22T03:34:44.696Z,15.49
2023-08-22T03:37:21.024Z,15.47
2023-08-22T03:39:47.607Z,15.46
2023-08-22T03:42:15.579Z,15.45
2023-08-22T03:44:42.723Z,15.40
2023-08-22T03:47:11.649Z,15.39
2023-08-22T03:50:14.815Z,15.32
2023-08-22T03:55:26.419Z,15.21
2023-08-22T03:57:53.442Z,15.19
2023-08-22T04:00:20.370Z,15.18
2023-08-22T04:02:47.512Z,15.19
2023-08-22T04:05:17.360Z,15.20
2023-08-22T04:07:44.420Z,15.18
2023-08-22T04:10:11.166Z,15.18
2023-08-22T04:12:42.645Z,15.18
2023-08-22T04:15:37.066Z,15.12
2023-08-22T04:18:04.111Z,15.08
2023-08-22T04:20:30.651Z,15.04
2023-08-22T04:22:57.182Z,15.04
2023-08-22T04:25:25.589Z,15.04
2023-08-22T04:27:53.101Z,14.97
2023-08-22T04:30:20.124Z,14.95
2023-08-22T04:32:47.026Z,14.93
2023-08-22T04:35:13.918Z,14.94
2023-08-22T04:37:40.799Z,14.92
2023-08-22T04:40:07.938Z,14.93
2023-08-22T04:42:36.104Z,14.92
2023-08-22T04:45:02.703Z,14.88
2023-08-22T04:47:29.361Z,14.86
2023-08-22T04:49:56.013Z,14.84
2023-08-22T04:52:22.759Z,14.86
2023-08-22T04:54:49.406Z,14.91
2023-08-22T04:57:16.392Z,14.97
2023-08-22T04:59:43.345Z,14.97
2023-08-22T05:02:09.936Z,15.00
2023-08-22T05:04:36.514Z,15.03
2023-08-22T05:07:03.152Z,15.04
2023-08-22T05:09:29.658Z,15.09
2023-08-22T05:11:56.261Z,15.15
2023-08-22T05:14:23.140Z,15.20
2023-08-22T05:16:49.822Z,15.22
2023-08-22T05:19:16.477Z,15.25
2023-08-22T05:21:43.219Z,15.27
2023-08-22T05:36:11.869Z,15.54
2023-08-22T05:38:39.222Z,15.62
2023-08-22T05:41:05.960Z,15.70
2023-08-22T05:46:13.907Z,15.83
2023-08-22T05:48:40.649Z,15.87
2023-08-22T05:51:07.210Z,15.93
2023-08-22T05:53:33.979Z,15.98
2023-08-22T05:56:00.887Z,16.02
2023-08-22T05:58:27.525Z,16.07
2023-08-22T06:00:54.123Z,16.11
2023-08-22T06:03:21.560Z,16.20
2023-08-22T06:10:39.190Z,16.51
2023-08-22T06:13:05.915Z,16.56
2023-08-22T06:15:32.658Z,16.63
2023-08-22T06:17:59.479Z,16.68
2023-08-22T06:20:26.103Z,16.75
2023-08-22T06:22:52.891Z,16.81
2023-08-22T06:25:19.606Z,16.88
2023-08-22T06:27:46.332Z,16.93
2023-08-22T06:30:13.280Z,16.97
2023-08-22T06:32:40.148Z,17.00
2023-08-22T06:35:08.652Z,17.03
2023-08-22T06:37:35.767Z,17.09
2023-08-22T06:40:02.567Z,17.12
2023-08-22T06:42:32.184Z,17.14
2023-08-22T06:45:01.640Z,17.15
2023-08-22T06:47:44.363Z,17.18
2023-08-22T06:50:11.383Z,17.20
2023-08-22T06:52:40.979Z,17.25
2023-08-22T06:55:08.122Z,17.31
2023-08-22T06:57:37.194Z,17.41
2023-08-22T07:00:17.697Z,17.51
2023-08-22T07:02:50.746Z,17.63
2023-08-22T07:05:18.682Z,17.75
2023-08-22T07:07:47.835Z,17.90
2023-08-22T07:10:18.615Z,18.02
2023-08-22T07:12:48.686Z,18.13
2023-08-22T07:15:15.790Z,18.24
2023-08-22T07:17:48.592Z,18.40
2023-08-22T07:23:40.651Z,18.67
2023-08-22T07:26:07.325Z,18.79
2023-08-22T07:28:34.645Z,18.93
2023-08-22T07:31:05.215Z,19.11
2023-08-22T07:33:32.030Z,19.31
2023-08-22T07:35:59.009Z,19.45
2023-08-22T07:38:26.469Z,19.54
2023-08-22T07:40:53.340Z,19.58
2023-08-22T07:43:20.591Z,19.63
2023-08-22T07:45:47.604Z,19.75
2023-08-22T07:48:14.473Z,19.86
2023-08-22T07:50:41.298Z,19.91
2023-08-22T07:53:07.930Z,19.90
2023-08-22T07:55:37.271Z,19.87
2023-08-22T07:58:16.676Z,19.92
2023-08-22T08:01:05.414Z,19.97
2023-08-22T08:03:36.321Z,20.03
2023-08-22T08:06:03.929Z,20.11
2023-08-22T08:08:33.331Z,20.16
2023-08-22T08:11:05.898Z,20.22
2023-08-22T08:13:36.287Z,20.25
2023-08-22T08:16:35.481Z,20.37
2023-08-22T08:19:07.199Z,20.60
2023-08-22T08:21:34.606Z,20.76
2023-08-22T08:24:01.268Z,20.75
2023-08-22T08:26:28.121Z,20.76
2023-08-22T08:28:54.772Z,20.66
2023-08-22T08:31:21.505Z,20.77
2023-08-22T08:33:48.270Z,20.86
2023-08-22T08:36:17.672Z,20.81
2023-08-22T08:41:37.828Z,20.91
2023-08-22T08:44:29.293Z,20.88
2023-08-22T08:46:57.450Z,20.93
2023-08-22T08:49:25.225Z,20.98
2023-08-22T08:52:04.084Z,21.22
2023-08-22T08:54:31.205Z,21.46
2023-08-22T08:56:58.053Z,21.67
2023-08-22T09:03:11.239Z,21.84
2023-08-22T09:05:43.088Z,22.09
2023-08-22T09:12:05.949Z,22.16
2023-08-22T09:14:36.269Z,22.20
2023-08-22T09:17:06.317Z,22.21
2023-08-22T09:19:36.355Z,22.13
2023-08-22T09:22:06.987Z,22.09
2023-08-22T09:24:54.181Z,22.28
2023-08-22T09:28:02.481Z,22.36
2023-08-22T09:30:38.413Z,22.40
2023-08-22T09:33:05.207Z,22.46
2023-08-22T09:35:35.684Z,22.46
2023-08-22T09:38:11.183Z,22.49
2023-08-22T09:40:58.523Z,22.51
2023-08-22T09:43:35.619Z,22.34
2023-08-22T09:46:03.077Z,22.33
2023-08-22T09:51:23.718Z,22.27
2023-08-22T09:54:11.003Z,22.33
2023-08-22T09:56:56.953Z,22.29
2023-08-22T09:59:29.013Z,22.44
2023-08-22T10:01:57.696Z,22.48
2023-08-22T10:04:25.573Z,22.40
2023-08-22T10:06:58.688Z,22.51
2023-08-22T10:09:29.171Z,22.55
2023-08-22T10:12:04.865Z,22.62
2023-08-22T10:14:49.991Z,22.73
2023-08-22T10:17:17.385Z,22.98
2023-08-22T10:19:44.752Z,23.06
2023-08-22T10:22:13.999Z,23.08
2023-08-22T10:24:41.920Z,23.27
2023-08-22T10:27:12.260Z,23.20
2023-08-22T10:29:47.278Z,23.07
2023-08-22T10:32:17.290Z,23.05
2023-08-22T10:34:43.947Z,23.10
2023-08-22T10:37:24.160Z,23.25
2023-08-22T10:39:50.925Z,23.25
2023-08-22T10:42:22.381Z,23.06
2023-08-22T10:44:49.790Z,23.11
2023-08-22T10:47:21.383Z,23.15
2023-08-22T10:52:37.940Z,23.44
2023-08-22T10:55:04.539Z,23.38
2023-08-22T10:57:37.085Z,23.21
2023-08-22T11:00:24.443Z,23.14
2023-08-22T11:02:56.760Z,23.46
2023-08-22T11:05:23.745Z,23.34
2023-08-22T11:07:50.920Z,23.34
2023-08-22T11:10:20.351Z,23.41
2023-08-22T11:12:48.092Z,23.52
2023-08-22T11:15:15.939Z,23.53
2023-08-22T11:17:44.598Z,23.42
2023-08-22T11:20:16.574Z,23.40
2023-08-22T11:22:44.236Z,23.42
2023-08-22T11:25:15.063Z,23.53
2023-08-22T11:27:42.306Z,23.52
2023-08-22T11:30:10.886Z,23.57
2023-08-22T11:32:42.570Z,23.70
2023-08-22T11:35:12.577Z,23.60
2023-08-22T11:37:43.461Z,23.67
2023-08-22T11:40:17.566Z,23.82
2023-08-22T11:42:47.915Z,23.89
2023-08-22T11:45:18.331Z,23.80
2023-08-22T11:47:49.952Z,23.75
2023-08-22T11:50:26.852Z,23.72
2023-08-22T11:52:58.717Z,23.99
2023-08-22T11:55:27.623Z,24.02
2023-08-22T11:58:02.107Z,23.94
2023-08-22T12:00:30.664Z,24.00
2023-08-22T12:03:00.248Z,24.08
2023-08-22T12:05:37.619Z,23.97
2023-08-22T12:08:06.894Z,23.89
2023-08-22T12:10:44.230Z,23.89
2023-08-22T12:13:12.366Z,23.70
2023-08-22T12:15:40.460Z,23.51
2023-08-22T12:18:08.162Z,23.40
2023-08-22T12:20:36.140Z,23.34
2023-08-22T12:23:02.997Z,23.43
2023-08-22T12:25:29.705Z,23.41
2023-08-22T12:27:56.265Z,23.46
2023-08-22T12:30:23.046Z,23.40
2023-08-22T12:32:49.722Z,23.34
2023-08-22T12:35:16.820Z,23.31
2023-08-22T12:37:43.589Z,23.38
2023-08-22T12:40:14.156Z,23.73
2023-08-22T12:42:42.579Z,23.76
2023-08-22T12:45:26.734Z,23.92
2023-08-22T12:47:58.213Z,24.14
2023-08-22T12:50:29.094Z,24.18
2023-08-22T12:52:56.847Z,24.12
2023-08-22T12:55:24.035Z,24.19
2023-08-22T12:58:04.310Z,24.33
2023-08-22T13:00:30.825Z,24.55
2023-08-22T13:02:57.549Z,24.77
2023-08-22T13:05:24.228Z,24.92
2023-08-22T13:07:50.920Z,24.85
2023-08-22T13:10:17.860Z,24.71
2023-08-22T13:12:44.652Z,24.46
2023-08-22T13:15:11.584Z,24.32
2023-08-22T13:17:38.218Z,24.21
2023-08-22T13:20:06.216Z,24.05
2023-08-22T13:22:33.142Z,23.93
2023-08-22T13:24:59.990Z,23.89
2023-08-22T13:27:26.799Z,24.02
2023-08-22T13:29:53.428Z,24.28
2023-08-22T13:32:19.996Z,24.66
2023-08-22T13:34:46.606Z,24.59
2023-08-22T13:37:13.284Z,24.75
2023-08-22T13:39:39.857Z,24.69
2023-08-22T13:42:07.413Z,24.88
2023-08-22T13:44:33.936Z,24.60
2023-08-22T13:47:00.478Z,24.71
2023-08-22T13:49:48.082Z,25.14
2023-08-22T13:52:15.276Z,25.47
2023-08-22T13:54:42.097Z,26.09
2023-08-22T13:57:09.509Z,26.67
2023-08-22T13:59:37.014Z,26.95
2023-08-22T14:02:03.625Z,27.17
2023-08-22T14:04:30.153Z,26.97
2023-08-22T14:06:56.692Z,27.38
2023-08-22T14:09:26.764Z,27.76
2023-08-22T14:11:53.964Z,28.02
2023-08-22T14:17:23.796Z,27.79
2023-08-22T14:19:56.263Z,27.59
2023-08-22T14:25:15.225Z,28.22
2023-08-22T14:27:41.851Z,27.76
2023-08-22T14:30:13.705Z,28.14
2023-08-22T14:32:40.504Z,28.30
2023-08-22T14:35:23.009Z,28.14
2023-08-22T14:37:51.927Z,27.82
2023-08-22T14:40:22.911Z,28.12
2023-08-22T14:42:49.473Z,27.79
2023-08-22T14:45:16.277Z,27.76
2023-08-22T14:47:43.173Z,27.89
2023-08-22T14:50:10.118Z,27.86
2023-08-22T14:52:36.661Z,27.96
2023-08-22T14:55:07.411Z,27.72
2023-08-22T14:57:34.273Z,27.17
2023-08-22T15:00:11.954Z,27.48
2023-08-22T15:02:38.605Z,27.73
2023-08-22T15:05:05.698Z,27.67
2023-08-22T15:07:32.349Z,26.83
2023-08-22T15:09:59.110Z,26.87
2023-08-22T15:12:25.766Z,26.97
2023-08-22T15:14:52.480Z,26.69
2023-08-22T15:17:19.158Z,26.91
2023-08-22T15:19:45.908Z,27.17
2023-08-22T15:22:13.237Z,27.41
2023-08-22T15:24:41.676Z,27.33
2023-08-22T15:27:10.797Z,27.20
2023-08-22T15:29:38.966Z,27.06
2023-08-22T15:32:05.880Z,27.05
2023-08-22T15:34:32.806Z,27.46
2023-08-22T15:36:59.518Z,27.62
2023-08-22T15:39:26.240Z,27.96
2023-08-22T15:41:53.001Z,27.92
2023-08-22T15:44:28.155Z,27.46
2023-08-22T15:46:55.087Z,27.68
2023-08-22T15:49:21.809Z,27.96
2023-08-22T15:54:29.759Z,27.98
2023-08-22T17:33:47.188Z,25.25
2023-08-22T17:36:14.953Z,25.57
2023-08-22T17:38:43.862Z,25.61
2023-08-22T17:41:12.702Z,25.02
2023-08-22T17:43:41.242Z,24.48
2023-08-22T17:46:07.962Z,25.17
2023-08-22T17:48:35.399Z,24.96
2023-08-22T17:51:02.473Z,23.66
2023-08-22T17:53:29.251Z,23.22
2023-08-22T17:55:56.208Z,22.84
2023-08-22T17:58:23.377Z,22.61
2023-08-22T18:00:51.147Z,22.38
2023-08-22T18:03:17.938Z,22.27
2023-08-22T18:05:59.721Z,22.11
2023-08-22T18:08:27.340Z,21.95
2023-08-22T18:10:55.005Z,21.88
2023-08-22T18:13:34.618Z,21.83
2023-08-22T18:18:32.515Z,21.64
2023-08-22T18:21:03.858Z,21.48
2023-08-22T18:23:31.330Z,21.46
2023-08-22T18:26:02.942Z,21.36
2023-08-22T18:28:32.389Z,21.30
2023-08-22T18:31:01.302Z,21.26
2023-08-22T18:33:28.072Z,21.08
2023-08-22T18:35:54.775Z,21.02
2023-08-22T18:40:00.177Z,20.94
2023-08-22T18:42:28.529Z,20.82
2023-08-22T18:45:08.224Z,20.61
2023-08-22T18:47:34.974Z,20.52
2023-08-22T18:50:04.372Z,20.51
2023-08-22T18:52:31.467Z,20.48
2023-08-22T18:54:58.101Z,20.41
2023-08-22T18:57:24.816Z,20.35
2023-08-22T18:59:51.319Z,20.21
2023-08-22T19:02:17.856Z,20.15
2023-08-22T19:04:44.428Z,20.09
2023-08-22T19:07:11.123Z,20.07
2023-08-22T19:09:38.046Z,20.00
2023-08-22T19:12:05.008Z,19.93
2023-08-22T19:14:31.763Z,19.89
2023-08-22T19:16:58.316Z,19.81
2023-08-22T19:19:24.894Z,19.73
2023-08-22T19:21:51.507Z,19.63
2023-08-22T19:24:32.631Z,19.55
2023-08-22T19:26:59.448Z,19.48
2023-08-22T19:29:27.200Z,19.36
2023-08-22T19:32:10.761Z,19.31
2023-08-22T19:34:43.624Z,19.24
2023-08-22T19:37:10.155Z,19.11
2023-08-22T19:39:36.750Z,19.03
2023-08-22T19:42:03.398Z,18.93
2023-08-22T19:44:29.981Z,18.85
2023-08-22T19:46:56.539Z,18.78
2023-08-22T19:49:23.050Z,18.69
2023-08-22T19:51:49.743Z,18.63
2023-08-22T19:54:16.307Z,18.56
2023-08-22T19:56:42.972Z,18.45
2023-08-22T19:59:09.558Z,18.37
2023-08-22T20:01:36.048Z,18.32
2023-08-22T20:04:03.246Z,18.26
2023-08-22T20:06:29.824Z,18.18
2023-08-22T20:08:56.551Z,18.15
2023-08-22T20:11:23.078Z,18.06
2023-08-22T20:13:54.672Z,18.00
2023-08-22T20:16:21.423Z,17.96
2023-08-22T20:18:50.961Z,17.92
2023-08-22T20:25:50.489Z,17.78
2023-08-22T20:28:17.063Z,17.73
2023-08-22T20:30:44.920Z,17.64
2023-08-22T20:33:11.714Z,17.51
2023-08-22T20:35:38.327Z,17.45
2023-08-22T20:38:05.504Z,17.42
2023-08-22T20:40:32.065Z,17.39
2023-08-22T20:42:58.650Z,17.33
2023-08-22T20:45:25.326Z,17.27
2023-08-22T20:47:52.503Z,17.19
2023-08-22T20:50:19.624Z,17.16
2023-08-22T20:52:46.280Z,17.08
2023-08-22T20:55:12.837Z,17.01
2023-08-22T20:57:41.754Z,17.06
2023-08-22T21:00:12.342Z,17.06
2023-08-22T21:02:41.318Z,17.01
2023-08-22T21:05:07.956Z,16.96
2023-08-22T21:07:34.621Z,16.92
2023-08-22T21:10:01.153Z,16.84
2023-08-22T21:12:28.669Z,16.74
2023-08-22T21:14:59.298Z,16.69
2023-08-22T21:17:25.954Z,16.64
2023-08-22T21:19:52.474Z,16.65
2023-08-22T21:22:25.449Z,16.64
2023-08-22T21:24:52.236Z,16.54
2023-08-22T21:27:18.765Z,16.46
2023-08-22T21:29:45.809Z,16.43
2023-08-22T21:32:14.682Z,16.42
2023-08-22T21:34:45.262Z,16.42
2023-08-22T21:37:11.889Z,16.43
2023-08-22T21:39:38.482Z,16.40
2023-08-22T21:42:05.394Z,16.36
2023-08-22T21:44:31.958Z,16.33
2023-08-22T21:47:04.453Z,16.36
2023-08-22T21:49:30.943Z,16.36
2023-08-22T21:54:55.455Z,16.28
2023-08-22T21:57:22.028Z,16.26
2023-08-22T21:59:48.762Z,16.21
2023-08-22T22:02:15.489Z,16.17
2023-08-22T22:04:42.077Z,16.11
2023-08-22T22:07:08.689Z,16.07
2023-08-22T22:09:35.652Z,16.05
2023-08-22T22:12:02.282Z,16.04
2023-08-22T22:14:29.148Z,16.02
2023-08-22T22:16:55.715Z,15.99
2023-08-22T22:19:22.937Z,15.96
2023-08-22T22:21:52.728Z,15.92
2023-08-22T22:24:19.233Z,15.87
2023-08-22T22:26:46.838Z,15.85
2023-08-22T22:29:14.926Z,15.80
2023-08-22T22:31:41.760Z,15.77
2023-08-22T22:34:08.516Z,15.72
2023-08-22T22:36:35.035Z,15.68
2023-08-22T22:39:01.630Z,15.64
2023-08-22T22:41:28.461Z,15.56
2023-08-22T22:43:55.078Z,15.58
2023-08-22T22:46:21.750Z,15.56
2023-08-22T22:48:48.505Z,15.55
2023-08-22T22:51:15.014Z,15.54
2023-08-22T22:53:41.745Z,15.52
2023-08-22T22:56:08.316Z,15.47
2023-08-22T22:58:35.153Z,15.42
2023-08-22T23:01:05.608Z,15.41
2023-08-22T23:03:32.284Z,15.41
2023-08-22T23:06:09.175Z,15.41
2023-08-22T23:08:36.355Z,15.38
2023-08-22T23:11:04.925Z,15.33
2023-08-22T23:13:34.440Z,15.30
2023-08-22T23:16:01.039Z,15.28
2023-08-22T23:18:27.538Z,15.27
2023-08-22T23:20:54.096Z,15.24
2023-08-22T23:23:20.698Z,15.18
2023-08-22T23:25:51.460Z,15.15
2023-08-22T23:28:18.555Z,15.12
2023-08-22T23:30:45.235Z,15.07
2023-08-22T23:33:11.974Z,15.03
2023-08-22T23:35:38.645Z,14.98
2023-08-22T23:38:05.297Z,14.99
2023-08-22T23:40:31.860Z,14.99
2023-08-22T23:42:58.439Z,14.97
2023-08-22T23:45:25.727Z,14.95
2023-08-22T23:47:53.191Z,14.95
2023-08-22T23:50:20.645Z,14.92
2023-08-22T23:52:47.220Z,14.87
2023-08-22T23:55:14.167Z,14.79
2023-08-22T23:57:40.913Z,14.78
